Niedercorn, Luxembourg
Current Conditions -  °F | °C
As of 9:20 PM on Sunday 21 Dec 2014 (Local Time) from ELLX Reporting Station
Broken Clouds Broken Clouds  
Wind Chill: 33°   Ceiling: 1700
Heat Index: 41°   Visibility: 6mi
Dew Point: 39°   Wind: 16mph
Humidity: 93%   Direction: 230°SW
Pressure: 30.36"   Gusts: NA
Location:  49.54°N, 5.89°E
Report Text: ELLX 212020Z 23014KT 210V270 9999 SCT012 BKN017 05/04 Q1028 NOSIG
Loading
Personal Weather Stations






























Interactive Weather Map New forecast layout! Learn more

10-Day Weather Forecast

Advertisements
Track Severe Weather on mobile